Time;durP1;ratioP1;P1;durP2;ratioP2;P2;SDS_P1;SDS_P2;PMS_P1;PMS_P2;Temp;Humidity;BMP_temperature;BMP_pressure;BME280_temperature;BME280_humidity;BME280_pressure;Samples;Min_cycle;Max_cycle;Signal;HPM_P1;HPM_P2
2023/08/29 00:00:21;;;;;;;9.40;4.83;;;;;;;;;;5030205;28;20053;-60
2023/08/29 00:02:48;;;;;;;8.97;4.10;;;;;;;;;;5029945;28;20041;-60
2023/08/29 00:05:14;;;;;;;7.00;4.27;;;;;;;;;;5029896;28;20057;-60
2023/08/29 00:07:40;;;;;;;8.10;4.83;;;;;;;;;;5029574;28;20048;-60
2023/08/29 00:10:06;;;;;;;11.90;6.27;;;;;;;;;;5030118;28;20132;-60
2023/08/29 00:12:32;;;;;;;11.57;6.50;;;;;;;;;;5029753;28;20148;-60
2023/08/29 00:14:59;;;;;;;8.40;5.23;;;;;;;;;;5029251;28;20574;-60
2023/08/29 00:17:26;;;;;;;10.73;4.77;;;;;;;;;;5029370;28;20535;-60
2023/08/29 00:19:52;;;;;;;14.33;7.07;;;;;;;;;;5029755;28;20479;-60
2023/08/29 00:22:18;;;;;;;15.60;7.30;;;;;;;;;;5029032;28;20381;-60
2023/08/29 00:24:44;;;;;;;12.23;6.13;;;;;;;;;;5029525;28;20063;-60
2023/08/29 00:27:11;;;;;;;13.23;6.30;;;;;;;;;;5028159;28;20049;-60
2023/08/29 00:29:37;;;;;;;10.97;6.80;;;;;;;;;;5028296;28;20099;-60
2023/08/29 00:32:03;;;;;;;11.20;5.90;;;;;;;;;;5030340;28;20132;-60
2023/08/29 00:34:29;;;;;;;11.53;6.10;;;;;;;;;;5029052;28;20033;-60
2023/08/29 00:36:55;;;;;;;8.73;5.57;;;;;;;;;;5009734;28;20073;-61
2023/08/29 00:39:21;;;;;;;12.93;6.50;;;;;;;;;;5010923;28;20465;-60
2023/08/29 00:41:49;;;;;;;17.77;5.83;;;;;;;;;;5029451;28;20423;-60
2023/08/29 00:44:18;;;;;;;11.77;5.93;;;;;;;;;;5028866;28;20057;-60
2023/08/29 00:46:45;;;;;;;15.97;7.03;;;;;;;;;;5029003;28;20072;-60
2023/08/29 00:49:12;;;;;;;10.20;6.33;;;;;;;;;;5029331;28;20088;-60
2023/08/29 00:51:38;;;;;;;13.53;7.17;;;;;;;;;;5028983;28;20080;-60
2023/08/29 00:54:05;;;;;;;10.70;4.73;;;;;;;;;;5029495;28;20479;-60
2023/08/29 00:56:31;;;;;;;7.60;3.27;;;;;;;;;;5028383;28;20522;-60
2023/08/29 00:58:57;;;;;;;7.07;3.47;;;;;;;;;;5028283;28;20033;-60
2023/08/29 01:01:22;;;;;;;6.10;3.47;;;;;;;;;;5029111;28;20045;-60
2023/08/29 01:03:48;;;;;;;54.23;5.53;;;;;;;;;;5029184;28;20043;-60
2023/08/29 01:06:15;;;;;;;12.83;3.30;;;;;;;;;;5029087;28;20527;-60
2023/08/29 01:08:43;;;;;;;19.00;3.20;;;;;;;;;;5028375;28;20049;-60
2023/08/29 01:11:48;;;;;;;27.07;4.83;;;;;;;;;;5029071;28;20054;-60
2023/08/29 01:14:19;;;;;;;17.47;4.80;;;;;;;;;;4967743;28;20050;-60
2023/08/29 01:16:49;;;;;;;8.73;5.00;;;;;;;;;;4967158;28;20477;-60
2023/08/29 01:19:16;;;;;;;12.53;5.07;;;;;;;;;;5000407;28;20050;-59
2023/08/29 01:21:54;;;;;;;5.13;2.67;;;;;;;;;;5028169;28;20572;-60
2023/08/29 01:24:39;;;;;;;4.87;2.60;;;;;;;;;;5028750;28;20099;-60
2023/08/29 01:27:06;;;;;;;6.37;3.20;;;;;;;;;;5028484;28;20132;-60
2023/08/29 01:29:32;;;;;;;10.27;4.43;;;;;;;;;;5028550;28;20395;-60
2023/08/29 01:31:59;;;;;;;10.83;4.17;;;;;;;;;;5028302;28;20042;-60
2023/08/29 01:34:25;;;;;;;5.67;3.30;;;;;;;;;;5027074;28;20037;-60
2023/08/29 01:36:51;;;;;;;7.00;4.30;;;;;;;;;;5028472;28;20349;-60
2023/08/29 01:39:17;;;;;;;12.90;4.80;;;;;;;;;;5028160;28;20598;-60
2023/08/29 01:41:43;;;;;;;6.17;3.60;;;;;;;;;;5028204;28;20045;-60
2023/08/29 01:44:09;;;;;;;10.90;4.80;;;;;;;;;;5028253;28;20103;-60
2023/08/29 01:46:36;;;;;;;11.07;6.03;;;;;;;;;;5028177;28;20088;-60
2023/08/29 01:49:03;;;;;;;9.23;5.03;;;;;;;;;;5028007;28;20057;-60
2023/08/29 01:51:29;;;;;;;14.37;6.30;;;;;;;;;;5028193;28;20053;-60
2023/08/29 01:53:56;;;;;;;8.27;3.97;;;;;;;;;;5027957;28;20128;-60
2023/08/29 01:56:23;;;;;;;5.43;2.63;;;;;;;;;;5027774;28;20045;-60
2023/08/29 01:58:50;;;;;;;7.83;4.13;;;;;;;;;;5027990;28;20180;-60
2023/08/29 02:01:16;;;;;;;23.20;6.00;;;;;;;;;;5028280;28;20050;-59
2023/08/29 02:03:42;;;;;;;59.37;6.30;;;;;;;;;;5028074;28;20622;-59
2023/08/29 02:06:08;;;;;;;30.83;7.03;;;;;;;;;;5027663;28;20073;-60
2023/08/29 02:08:34;;;;;;;29.07;8.43;;;;;;;;;;5027973;28;20069;-60
2023/08/29 02:11:00;;;;;;;8.83;4.87;;;;;;;;;;5028065;28;20042;-60
2023/08/29 02:13:26;;;;;;;13.30;6.90;;;;;;;;;;5027550;28;20088;-61
2023/08/29 02:15:52;;;;;;;12.13;6.10;;;;;;;;;;5028006;28;20462;-60
2023/08/29 02:18:18;;;;;;;10.83;5.83;;;;;;;;;;5028147;28;20041;-60
2023/08/29 02:20:43;;;;;;;10.43;6.10;;;;;;;;;;5027089;28;20045;-60
2023/08/29 02:23:09;;;;;;;19.53;8.47;;;;;;;;;;5028301;28;20750;-60
2023/08/29 02:25:35;;;;;;;12.83;6.63;;;;;;;;;;5027662;28;20076;-60
2023/08/29 02:28:01;;;;;;;10.53;5.67;;;;;;;;;;5027774;28;20077;-59
2023/08/29 02:30:27;;;;;;;12.30;6.00;;;;;;;;;;5028052;28;20049;-60
2023/08/29 02:32:53;;;;;;;12.77;6.73;;;;;;;;;;5028026;28;20041;-59
2023/08/29 02:35:19;;;;;;;10.87;6.00;;;;;;;;;;5028015;28;20407;-60
2023/08/29 02:37:45;;;;;;;10.13;6.17;;;;;;;;;;5027531;28;20049;-60
2023/08/29 02:40:11;;;;;;;10.70;6.23;;;;;;;;;;5028302;28;20049;-59
2023/08/29 02:42:37;;;;;;;9.23;5.60;;;;;;;;;;5028143;28;20068;-59
2023/08/29 02:45:04;;;;;;;10.87;6.23;;;;;;;;;;5030509;28;20045;-60
2023/08/29 02:47:30;;;;;;;13.60;6.50;;;;;;;;;;5031587;28;20076;-60
2023/08/29 02:49:56;;;;;;;12.30;6.27;;;;;;;;;;5032094;28;20503;-60
2023/08/29 02:52:22;;;;;;;21.37;7.90;;;;;;;;;;5032091;28;20136;-60
2023/08/29 02:54:48;;;;;;;12.87;7.03;;;;;;;;;;5031464;28;20625;-60
2023/08/29 02:57:14;;;;;;;18.43;8.23;;;;;;;;;;5031134;28;20500;-60
2023/08/29 02:59:40;;;;;;;14.67;7.97;;;;;;;;;;5031689;28;20171;-60
2023/08/29 03:02:06;;;;;;;12.53;6.80;;;;;;;;;;5031267;28;20440;-60
2023/08/29 03:04:32;;;;;;;15.33;7.20;;;;;;;;;;5031291;28;20077;-60
2023/08/29 03:06:59;;;;;;;13.87;6.47;;;;;;;;;;5031766;28;20045;-60
2023/08/29 03:09:25;;;;;;;13.87;7.60;;;;;;;;;;5031859;28;20041;-60
2023/08/29 03:11:51;;;;;;;15.13;7.87;;;;;;;;;;5031219;28;20092;-60
2023/08/29 03:14:17;;;;;;;10.13;4.20;;;;;;;;;;5031754;28;20072;-60
2023/08/29 03:16:43;;;;;;;9.20;4.23;;;;;;;;;;5031478;28;20042;-60
2023/08/29 03:19:09;;;;;;;16.10;7.67;;;;;;;;;;5031331;28;20053;-60
2023/08/29 03:21:35;;;;;;;14.17;7.07;;;;;;;;;;5031279;28;20172;-60
2023/08/29 03:24:01;;;;;;;11.77;6.93;;;;;;;;;;5031597;28;20041;-60
2023/08/29 03:26:27;;;;;;;13.80;7.07;;;;;;;;;;5031664;28;20045;-60
2023/08/29 03:28:53;;;;;;;15.30;7.30;;;;;;;;;;5030721;28;20045;-60
2023/08/29 03:31:19;;;;;;;17.43;8.23;;;;;;;;;;5031357;28;20256;-60
2023/08/29 03:33:45;;;;;;;16.70;8.63;;;;;;;;;;5030678;28;20049;-60
2023/08/29 03:36:11;;;;;;;19.43;8.03;;;;;;;;;;5031526;28;20602;-60
2023/08/29 03:38:38;;;;;;;14.27;7.20;;;;;;;;;;5029544;28;20499;-60
2023/08/29 03:41:05;;;;;;;18.37;7.33;;;;;;;;;;5030633;28;20089;-59
2023/08/29 03:43:31;;;;;;;12.77;5.67;;;;;;;;;;5031090;28;20050;-61
2023/08/29 03:45:58;;;;;;;15.23;6.67;;;;;;;;;;5031379;28;20483;-60
2023/08/29 03:48:24;;;;;;;14.97;6.93;;;;;;;;;;5030928;28;20123;-60
2023/08/29 03:50:50;;;;;;;41.10;10.80;;;;;;;;;;5030462;28;20119;-60
2023/08/29 03:53:16;;;;;;;14.67;7.90;;;;;;;;;;5031320;28;20045;-60
2023/08/29 03:55:42;;;;;;;12.83;6.27;;;;;;;;;;5029886;28;20488;-60
2023/08/29 03:58:08;;;;;;;14.10;6.93;;;;;;;;;;5030386;28;20045;-60
2023/08/29 04:00:34;;;;;;;18.17;7.40;;;;;;;;;;5030819;28;20555;-60
2023/08/29 04:03:01;;;;;;;36.93;10.20;;;;;;;;;;5030440;28;20515;-60
2023/08/29 04:05:28;;;;;;;17.27;7.00;;;;;;;;;;5030235;28;20083;-60
2023/08/29 04:07:54;;;;;;;65.90;11.00;;;;;;;;;;5030649;28;20666;-59
2023/08/29 04:10:20;;;;;;;14.73;6.90;;;;;;;;;;5030691;28;20165;-60
2023/08/29 04:12:46;;;;;;;24.37;9.17;;;;;;;;;;5030333;28;20128;-59
2023/08/29 04:15:12;;;;;;;15.33;6.87;;;;;;;;;;5030182;28;20172;-60
2023/08/29 04:17:38;;;;;;;19.37;7.40;;;;;;;;;;5030713;28;20052;-60
2023/08/29 04:20:08;;;;;;;20.83;8.93;;;;;;;;;;5030184;28;20053;-59
2023/08/29 04:22:35;;;;;;;22.07;8.00;;;;;;;;;;5030416;28;20401;-59
2023/08/29 04:25:01;;;;;;;13.53;6.77;;;;;;;;;;5030610;28;20041;-60
2023/08/29 04:27:27;;;;;;;21.73;9.00;;;;;;;;;;5030011;28;20044;-59
2023/08/29 04:29:53;;;;;;;10.67;5.90;;;;;;;;;;5030110;28;20512;-59
2023/08/29 04:32:19;;;;;;;6.10;3.57;;;;;;;;;;5030213;28;20120;-60
2023/08/29 04:34:45;;;;;;;12.90;6.43;;;;;;;;;;5030317;28;20049;-60
2023/08/29 04:37:11;;;;;;;12.77;5.80;;;;;;;;;;5029673;28;20085;-60
2023/08/29 04:39:37;;;;;;;11.23;5.90;;;;;;;;;;5030138;28;20416;-60
2023/08/29 04:42:03;;;;;;;16.40;6.70;;;;;;;;;;5029891;28;20049;-60
2023/08/29 04:44:30;;;;;;;6.60;3.53;;;;;;;;;;5030003;28;20499;-60
2023/08/29 04:46:56;;;;;;;8.63;4.30;;;;;;;;;;5029991;28;20045;-59
2023/08/29 04:49:22;;;;;;;6.33;3.67;;;;;;;;;;5030321;28;20176;-60
2023/08/29 04:51:48;;;;;;;12.47;5.13;;;;;;;;;;5030106;28;20512;-60
2023/08/29 04:54:14;;;;;;;7.10;3.00;;;;;;;;;;5029524;28;20043;-59
2023/08/29 04:56:40;;;;;;;3.83;2.47;;;;;;;;;;5029781;28;20045;-60
2023/08/29 04:59:06;;;;;;;12.73;3.73;;;;;;;;;;5029626;28;20045;-59
2023/08/29 05:01:32;;;;;;;23.40;7.40;;;;;;;;;;5029626;28;20099;-60
2023/08/29 05:03:58;;;;;;;14.70;5.50;;;;;;;;;;5029511;28;20083;-60
2023/08/29 05:06:25;;;;;;;10.47;4.17;;;;;;;;;;5028990;28;20041;-60
2023/08/29 05:08:51;;;;;;;14.10;5.87;;;;;;;;;;5029237;28;20045;-60
2023/08/29 05:11:18;;;;;;;18.10;5.50;;;;;;;;;;5022324;28;20045;-60
2023/08/29 05:13:44;;;;;;;22.87;4.70;;;;;;;;;;5028677;28;20046;-59
2023/08/29 05:16:10;;;;;;;27.80;6.40;;;;;;;;;;5028118;28;20084;-60
2023/08/29 05:18:36;;;;;;;43.13;9.60;;;;;;;;;;5029142;28;20503;-60
2023/08/29 05:21:03;;;;;;;18.83;8.27;;;;;;;;;;5029325;28;20056;-60
2023/08/29 05:23:29;;;;;;;18.00;8.00;;;;;;;;;;5029520;28;20222;-60
2023/08/29 05:25:55;;;;;;;32.90;10.30;;;;;;;;;;5028800;28;20480;-60
2023/08/29 05:28:21;;;;;;;31.60;9.80;;;;;;;;;;5027117;28;20052;-60
2023/08/29 05:30:47;;;;;;;60.87;12.60;;;;;;;;;;5009719;28;20061;-60
2023/08/29 05:33:13;;;;;;;203.77;21.90;;;;;;;;;;5009622;28;20097;-59
2023/08/29 05:35:39;;;;;;;156.60;20.67;;;;;;;;;;5009238;28;20508;-59
2023/08/29 05:38:05;;;;;;;45.70;11.83;;;;;;;;;;5009166;28;20054;-60
2023/08/29 05:40:31;;;;;;;59.33;14.70;;;;;;;;;;5012500;28;20049;-60
2023/08/29 05:42:57;;;;;;;30.27;11.23;;;;;;;;;;5028915;28;20515;-60
2023/08/29 05:45:23;;;;;;;37.37;11.97;;;;;;;;;;5029218;28;20069;-60
2023/08/29 05:47:48;;;;;;;63.73;13.33;;;;;;;;;;5028430;28;20041;-59
2023/08/29 05:50:15;;;;;;;308.33;23.40;;;;;;;;;;5028662;28;20124;-60
2023/08/29 05:52:40;;;;;;;286.13;27.13;;;;;;;;;;5028811;28;20052;-60
2023/08/29 05:55:08;;;;;;;406.13;30.97;;;;;;;;;;5028360;28;20393;-60
2023/08/29 05:57:34;;;;;;;455.87;34.03;;;;;;;;;;5027884;28;20462;-60
2023/08/29 06:00:00;;;;;;;434.07;33.67;;;;;;;;;;5028615;28;20045;-60
2023/08/29 06:02:26;;;;;;;401.73;34.20;;;;;;;;;;5028635;28;20082;-60
2023/08/29 06:04:52;;;;;;;366.60;33.43;;;;;;;;;;5028339;28;20045;-60
2023/08/29 06:07:19;;;;;;;221.83;26.70;;;;;;;;;;5027451;28;20087;-60
2023/08/29 06:09:45;;;;;;;108.90;20.90;;;;;;;;;;5027933;28;20049;-60
2023/08/29 06:12:11;;;;;;;73.97;18.30;;;;;;;;;;5028022;28;20037;-60
2023/08/29 06:14:37;;;;;;;58.03;17.50;;;;;;;;;;5028169;28;20037;-59
2023/08/29 06:17:03;;;;;;;32.37;14.30;;;;;;;;;;5027123;28;20042;-60
2023/08/29 06:19:29;;;;;;;22.90;11.87;;;;;;;;;;5028943;28;20538;-59
2023/08/29 06:21:55;;;;;;;21.77;11.67;;;;;;;;;;5031841;28;20049;-60
2023/08/29 06:24:21;;;;;;;12.37;8.80;;;;;;;;;;5031711;28;20045;-62
2023/08/29 06:26:47;;;;;;;9.83;6.53;;;;;;;;;;5031805;28;20049;-60
2023/08/29 06:29:13;;;;;;;14.87;11.07;;;;;;;;;;5032068;28;20406;-60
2023/08/29 06:31:41;;;;;;;19.10;11.50;;;;;;;;;;5031813;28;20041;-60
2023/08/29 06:34:07;;;;;;;14.57;10.40;;;;;;;;;;5031719;28;20056;-60
2023/08/29 06:36:33;;;;;;;16.60;11.40;;;;;;;;;;5031478;28;20037;-60
2023/08/29 06:38:59;;;;;;;14.30;10.80;;;;;;;;;;5031183;28;20072;-60
2023/08/29 06:41:25;;;;;;;21.53;12.63;;;;;;;;;;5031660;28;20057;-60
2023/08/29 06:43:51;;;;;;;17.80;12.27;;;;;;;;;;5031298;28;20450;-60
2023/08/29 06:46:17;;;;;;;19.07;12.60;;;;;;;;;;5031360;28;20100;-60
2023/08/29 06:48:43;;;;;;;17.67;12.10;;;;;;;;;;5031155;28;20053;-60
2023/08/29 06:51:10;;;;;;;17.73;11.43;;;;;;;;;;5031723;28;20144;-60
2023/08/29 06:53:36;;;;;;;20.67;13.60;;;;;;;;;;5031835;28;20037;-59
2023/08/29 06:56:02;;;;;;;18.80;12.00;;;;;;;;;;5030973;28;20100;-60
2023/08/29 06:58:28;;;;;;;25.23;13.67;;;;;;;;;;5031503;28;20407;-60
2023/08/29 07:00:54;;;;;;;20.50;11.77;;;;;;;;;;5031111;28;20095;-60
2023/08/29 07:03:20;;;;;;;19.83;11.20;;;;;;;;;;5031314;28;20515;-59
2023/08/29 07:05:46;;;;;;;19.93;11.50;;;;;;;;;;5031005;28;20037;-59
2023/08/29 07:08:12;;;;;;;14.23;9.87;;;;;;;;;;5030772;28;20099;-59
2023/08/29 07:10:38;;;;;;;13.80;8.30;;;;;;;;;;5031127;28;20504;-59
2023/08/29 07:13:04;;;;;;;17.10;10.10;;;;;;;;;;5022117;28;20105;-60
2023/08/29 07:15:30;;;;;;;11.93;7.97;;;;;;;;;;5011335;28;20041;-60
2023/08/29 07:17:56;;;;;;;11.17;7.60;;;;;;;;;;5010494;28;20050;-60
2023/08/29 07:20:22;;;;;;;13.80;6.33;;;;;;;;;;5010006;28;20133;-60
2023/08/29 07:22:48;;;;;;;9.70;6.60;;;;;;;;;;5010385;28;20053;-59
2023/08/29 07:25:15;;;;;;;11.20;7.67;;;;;;;;;;5010542;28;20540;-59
2023/08/29 07:27:41;;;;;;;10.60;6.67;;;;;;;;;;5021758;28;20085;-60
2023/08/29 07:30:10;;;;;;;8.83;6.13;;;;;;;;;;5030215;28;20045;-60
2023/08/29 07:32:36;;;;;;;6.67;5.70;;;;;;;;;;5030265;28;20128;-60
2023/08/29 07:35:02;;;;;;;9.93;5.00;;;;;;;;;;5024234;28;20061;-60
2023/08/29 07:37:29;;;;;;;13.50;7.93;;;;;;;;;;5010737;28;20136;-60
2023/08/29 07:39:54;;;;;;;10.10;6.00;;;;;;;;;;5010092;28;20416;-60
2023/08/29 07:42:21;;;;;;;8.60;6.33;;;;;;;;;;5017126;28;20041;-60
2023/08/29 07:44:47;;;;;;;11.30;7.43;;;;;;;;;;5030166;28;20064;-60
2023/08/29 07:47:13;;;;;;;10.40;6.33;;;;;;;;;;5030027;28;20504;-60
2023/08/29 07:49:39;;;;;;;9.17;7.33;;;;;;;;;;5028888;28;20037;-60
2023/08/29 07:52:05;;;;;;;11.00;7.50;;;;;;;;;;5037811;28;20054;-60
2023/08/29 07:54:31;;;;;;;12.07;6.90;;;;;;;;;;5030765;28;20061;-60
2023/08/29 07:56:57;;;;;;;7.97;6.03;;;;;;;;;;5030087;28;20049;-61
2023/08/29 07:59:23;;;;;;;11.27;4.87;;;;;;;;;;5029912;28;20518;-61
2023/08/29 08:01:49;;;;;;;9.17;5.43;;;;;;;;;;5029902;28;20057;-60
2023/08/29 08:04:15;;;;;;;9.83;5.30;;;;;;;;;;5030058;28;20041;-61
2023/08/29 08:06:41;;;;;;;9.83;4.60;;;;;;;;;;5010567;28;20140;-61
2023/08/29 08:09:08;;;;;;;9.10;3.93;;;;;;;;;;5010765;28;20054;-60
2023/08/29 08:11:34;;;;;;;11.47;3.50;;;;;;;;;;5010484;28;20526;-60
2023/08/29 08:14:00;;;;;;;6.13;3.50;;;;;;;;;;5010233;28;20475;-60
2023/08/29 08:16:26;;;;;;;5.67;3.13;;;;;;;;;;5010797;28;20046;-61
2023/08/29 08:18:52;;;;;;;5.50;3.70;;;;;;;;;;5030106;28;20414;-60
2023/08/29 08:21:20;;;;;;;7.03;3.53;;;;;;;;;;5029790;28;20045;-60
2023/08/29 08:23:46;;;;;;;7.17;3.13;;;;;;;;;;5029765;28;20080;-61
2023/08/29 08:26:12;;;;;;;3.90;2.70;;;;;;;;;;5030311;28;20436;-61
2023/08/29 08:28:38;;;;;;;4.73;2.30;;;;;;;;;;5030020;28;20042;-61
2023/08/29 08:31:06;;;;;;;6.33;2.70;;;;;;;;;;5029229;28;20081;-61
2023/08/29 08:33:32;;;;;;;5.67;1.60;;;;;;;;;;5029873;28;20053;-61
2023/08/29 08:35:58;;;;;;;7.20;2.03;;;;;;;;;;5029758;28;20397;-61
2023/08/29 08:38:24;;;;;;;5.70;2.60;;;;;;;;;;5024718;28;20045;-60
2023/08/29 08:40:50;;;;;;;6.80;2.33;;;;;;;;;;5018617;28;20143;-61
2023/08/29 08:43:17;;;;;;;6.40;2.40;;;;;;;;;;5028417;28;20045;-61
2023/08/29 08:45:44;;;;;;;6.57;2.00;;;;;;;;;;5028617;28;20120;-61
2023/08/29 08:48:10;;;;;;;4.40;2.63;;;;;;;;;;5027668;28;20045;-61
2023/08/29 08:50:36;;;;;;;3.30;2.47;;;;;;;;;;5028482;28;20030;-61
2023/08/29 08:53:03;;;;;;;4.23;2.10;;;;;;;;;;5027507;28;20935;-61
2023/08/29 08:55:29;;;;;;;4.67;1.60;;;;;;;;;;5028680;28;20041;-61
2023/08/29 08:57:55;;;;;;;3.13;1.90;;;;;;;;;;5028360;28;20123;-61
2023/08/29 09:00:22;;;;;;;5.17;2.40;;;;;;;;;;5028635;28;20511;-61
2023/08/29 09:02:48;;;;;;;3.37;1.80;;;;;;;;;;5028424;28;20067;-61
2023/08/29 09:05:14;;;;;;;6.00;1.90;;;;;;;;;;5028434;28;20579;-61
2023/08/29 09:07:41;;;;;;;5.57;2.43;;;;;;;;;;5028929;28;20562;-61
2023/08/29 09:10:08;;;;;;;3.53;1.97;;;;;;;;;;5028748;28;20049;-61
2023/08/29 09:12:34;;;;;;;4.60;1.40;;;;;;;;;;5028726;28;20126;-61
2023/08/29 09:15:05;;;;;;;2.60;1.03;;;;;;;;;;5028529;28;20091;-61
2023/08/29 09:17:31;;;;;;;2.97;1.70;;;;;;;;;;5027946;28;20079;-61
2023/08/29 09:20:00;;;;;;;4.47;1.93;;;;;;;;;;5028497;28;20598;-61
2023/08/29 09:22:27;;;;;;;3.13;1.60;;;;;;;;;;5028538;28;20045;-61
2023/08/29 09:25:01;;;;;;;2.60;1.50;;;;;;;;;;5028133;28;20042;-61
2023/08/29 09:27:27;;;;;;;2.43;1.30;;;;;;;;;;5028307;28;20170;-61
2023/08/29 09:29:53;;;;;;;4.60;1.53;;;;;;;;;;5027885;28;20156;-61
2023/08/29 09:32:19;;;;;;;4.83;1.53;;;;;;;;;;5027990;28;20492;-62
2023/08/29 09:34:45;;;;;;;8.40;2.60;;;;;;;;;;5028232;28;20546;-61
2023/08/29 09:37:12;;;;;;;3.10;1.33;;;;;;;;;;5027961;28;20488;-61
2023/08/29 09:39:38;;;;;;;3.10;1.27;;;;;;;;;;5027707;28;20081;-61
2023/08/29 09:42:08;;;;;;;2.70;1.43;;;;;;;;;;5028225;28;20054;-61
2023/08/29 09:44:38;;;;;;;3.90;1.70;;;;;;;;;;5028319;28;20052;-61
2023/08/29 09:47:08;;;;;;;3.37;1.57;;;;;;;;;;5027636;28;20046;-61
2023/08/29 09:49:46;;;;;;;2.60;1.57;;;;;;;;;;5027907;28;20045;-61
2023/08/29 09:52:12;;;;;;;2.83;1.37;;;;;;;;;;5028170;28;20457;-61
2023/08/29 09:54:43;;;;;;;2.63;1.40;;;;;;;;;;5027084;28;20041;-61
2023/08/29 09:57:11;;;;;;;3.45;1.33;;;;;;;;;;5027885;28;20092;-61
2023/08/29 09:59:39;;;;;;;2.15;1.20;;;;;;;;;;5027677;28;20103;-61
2023/08/29 10:02:05;;;;;;;2.40;1.10;;;;;;;;;;5027940;28;21072;-61
2023/08/29 10:04:32;;;;;;;3.17;1.27;;;;;;;;;;5027975;28;20514;-61
2023/08/29 10:06:59;;;;;;;3.42;1.23;;;;;;;;;;5027602;28;20037;-61
2023/08/29 10:09:27;;;;;;;2.63;1.55;;;;;;;;;;5027512;28;20042;-61
2023/08/29 10:11:54;;;;;;;4.10;1.75;;;;;;;;;;5027730;28;20471;-61
2023/08/29 10:14:21;;;;;;;2.23;1.23;;;;;;;;;;5028137;28;20136;-61
2023/08/29 10:16:48;;;;;;;2.30;1.00;;;;;;;;;;5027940;28;20049;-61
2023/08/29 10:19:15;;;;;;;3.87;1.90;;;;;;;;;;5027893;28;20045;-61
2023/08/29 10:21:45;;;;;;;5.33;2.03;;;;;;;;;;5027301;28;20053;-61
2023/08/29 10:24:12;;;;;;;4.57;1.60;;;;;;;;;;5027729;28;20098;-61
2023/08/29 10:26:38;;;;;;;4.13;1.77;;;;;;;;;;5027759;28;20522;-61
2023/08/29 10:29:05;;;;;;;6.47;1.97;;;;;;;;;;5027638;28;20526;-61
2023/08/29 10:31:32;;;;;;;4.60;2.20;;;;;;;;;;5026910;28;20091;-61
2023/08/29 10:33:58;;;;;;;4.03;1.90;;;;;;;;;;5027733;28;20049;-61
2023/08/29 10:36:25;;;;;;;3.20;2.10;;;;;;;;;;5027738;28;20045;-61
2023/08/29 10:38:51;;;;;;;4.50;2.13;;;;;;;;;;5027569;28;20088;-61
2023/08/29 10:41:17;;;;;;;4.90;2.30;;;;;;;;;;5027310;28;20057;-61
2023/08/29 10:43:43;;;;;;;4.00;2.20;;;;;;;;;;5027366;28;20560;-61
2023/08/29 10:46:12;;;;;;;4.67;2.30;;;;;;;;;;5027587;28;20060;-61
2023/08/29 10:48:44;;;;;;;4.83;2.33;;;;;;;;;;5027545;28;20072;-61
2023/08/29 10:51:11;;;;;;;5.43;2.50;;;;;;;;;;5027245;28;20049;-61
2023/08/29 10:53:38;;;;;;;5.23;2.47;;;;;;;;;;5027288;28;20136;-61
2023/08/29 10:56:05;;;;;;;6.23;2.10;;;;;;;;;;5027098;28;20611;-61
2023/08/29 10:58:41;;;;;;;6.57;2.43;;;;;;;;;;5027356;28;20042;-61
2023/08/29 11:01:27;;;;;;;3.20;1.20;;;;;;;;;;5027475;28;20057;-61
2023/08/29 11:03:54;;;;;;;4.47;1.53;;;;;;;;;;5027301;28;20064;-61
2023/08/29 11:06:21;;;;;;;5.97;1.57;;;;;;;;;;5029239;28;20088;-62
2023/08/29 11:08:47;;;;;;;3.33;1.30;;;;;;;;;;5031077;28;20132;-61
2023/08/29 11:11:18;;;;;;;3.70;1.53;;;;;;;;;;5031170;28;20120;-61
2023/08/29 11:14:00;;;;;;;5.40;1.20;;;;;;;;;;5030833;28;20060;-61
2023/08/29 11:16:41;;;;;;;2.80;1.20;;;;;;;;;;5030881;28;20053;-61
2023/08/29 11:19:10;;;;;;;2.50;1.20;;;;;;;;;;5030366;28;20120;-61
2023/08/29 11:21:36;;;;;;;4.00;0.97;;;;;;;;;;5030696;28;20068;-62
2023/08/29 11:24:05;;;;;;;2.50;0.90;;;;;;;;;;5030349;28;20045;-61
2023/08/29 11:26:32;;;;;;;2.87;1.20;;;;;;;;;;5030556;28;20056;-61
2023/08/29 11:28:58;;;;;;;3.40;1.33;;;;;;;;;;5029857;28;20467;-61
2023/08/29 11:31:24;;;;;;;4.63;1.50;;;;;;;;;;5030450;28;20132;-61
2023/08/29 11:33:50;;;;;;;3.37;1.50;;;;;;;;;;5030312;28;20053;-61
2023/08/29 11:36:16;;;;;;;3.03;1.70;;;;;;;;;;5030191;28;20111;-61
2023/08/29 11:38:43;;;;;;;3.90;2.07;;;;;;;;;;5030222;28;20100;-61
2023/08/29 11:41:10;;;;;;;4.03;2.00;;;;;;;;;;5030781;28;20049;-62
2023/08/29 11:43:37;;;;;;;6.17;2.33;;;;;;;;;;5029912;28;20054;-60
2023/08/29 11:46:06;;;;;;;3.53;2.00;;;;;;;;;;5029778;28;20062;-61
2023/08/29 11:48:32;;;;;;;5.93;2.13;;;;;;;;;;5030163;28;20450;-61
2023/08/29 11:51:03;;;;;;;4.80;1.63;;;;;;;;;;5029954;28;20427;-61
2023/08/29 11:53:36;;;;;;;2.63;1.73;;;;;;;;;;5027988;28;20504;-61
2023/08/29 11:56:02;;;;;;;;;;;;;;;;;;5029514;28;20809;-61
2023/08/29 11:58:30;;;;;;;3.75;1.77;;;;;;;;;;5043997;28;20402;-61
2023/08/29 12:00:56;;;;;;;3.42;1.80;;;;;;;;;;5032118;28;20088;-61
2023/08/29 12:03:25;;;;;;;3.70;1.73;;;;;;;;;;5030591;28;20045;-63
2023/08/29 12:05:51;;;;;;;3.80;1.67;;;;;;;;;;5030432;28;20160;-62
2023/08/29 12:08:33;;;;;;;3.22;1.90;;;;;;;;;;5029913;28;20049;-61
2023/08/29 12:10:59;;;;;;;4.60;1.38;;;;;;;;;;5029984;28;20500;-61
2023/08/29 12:13:25;;;;;;;2.72;1.30;;;;;;;;;;5030428;28;20484;-62
2023/08/29 12:15:51;;;;;;;2.35;1.30;;;;;;;;;;5029209;28;20059;-61
2023/08/29 12:18:21;;;;;;;2.63;1.52;;;;;;;;;;5027104;28;20464;-61
2023/08/29 12:20:47;;;;;;;2.47;1.40;;;;;;;;;;5028810;28;20626;-61
2023/08/29 12:23:23;;;;;;;2.80;1.50;;;;;;;;;;5029503;28;20049;-62
2023/08/29 12:25:49;;;;;;;3.08;1.58;;;;;;;;;;5028140;28;20046;-62
2023/08/29 12:28:15;;;;;;;2.78;1.30;;;;;;;;;;5028827;28;20095;-61
2023/08/29 12:30:41;;;;;;;2.67;1.30;;;;;;;;;;5029357;28;20050;-62
2023/08/29 12:33:07;;;;;;;3.03;1.40;;;;;;;;;;5029320;28;20365;-62
2023/08/29 12:35:33;;;;;;;1.73;1.20;;;;;;;;;;5029596;28;20084;-62
2023/08/29 12:37:59;;;;;;;2.75;1.40;;;;;;;;;;5028736;28;20508;-62
2023/08/29 12:40:26;;;;;;;4.05;1.63;;;;;;;;;;5029111;28;20053;-61
2023/08/29 12:42:52;;;;;;;3.20;1.55;;;;;;;;;;5027805;28;20666;-62
2023/08/29 12:45:18;;;;;;;2.03;1.25;;;;;;;;;;5029248;28;20083;-61
2023/08/29 12:47:47;;;;;;;3.92;1.42;;;;;;;;;;5028748;28;20110;-61
2023/08/29 12:50:13;;;;;;;5.07;1.90;;;;;;;;;;5029608;28;20055;-62
2023/08/29 12:52:40;;;;;;;2.97;2.15;;;;;;;;;;5027766;28;20295;-61
2023/08/29 12:55:06;;;;;;;2.63;1.83;;;;;;;;;;5028569;28;20124;-62
2023/08/29 12:57:32;;;;;;;4.60;2.00;;;;;;;;;;5029108;28;20048;-62
2023/08/29 12:59:58;;;;;;;2.90;1.90;;;;;;;;;;5029397;28;20403;-61
2023/08/29 13:02:25;;;;;;;3.50;1.80;;;;;;;;;;5028622;28;20046;-61
2023/08/29 13:04:51;;;;;;;4.40;2.30;;;;;;;;;;5027696;28;20049;-61
2023/08/29 13:07:17;;;;;;;4.07;2.20;;;;;;;;;;5029135;28;20115;-62
2023/08/29 13:09:45;;;;;;;4.68;2.22;;;;;;;;;;5028911;28;20425;-61
2023/08/29 13:12:11;;;;;;;2.63;2.03;;;;;;;;;;5029698;28;20156;-61
2023/08/29 13:14:37;;;;;;;3.95;2.00;;;;;;;;;;5029465;28;20048;-61
2023/08/29 13:17:04;;;;;;;4.32;2.40;;;;;;;;;;5028500;28;20053;-61
2023/08/29 13:19:30;;;;;;;3.38;1.98;;;;;;;;;;5028540;28;20053;-61
2023/08/29 13:21:56;;;;;;;4.50;2.53;;;;;;;;;;5042509;28;20049;-61
2023/08/29 13:24:22;;;;;;;5.80;2.20;;;;;;;;;;5034095;28;20045;-61
2023/08/29 13:26:48;;;;;;;3.87;2.30;;;;;;;;;;5028279;28;20046;-61
2023/08/29 13:29:14;;;;;;;3.30;2.47;;;;;;;;;;5028212;28;20049;-61
2023/08/29 13:31:42;;;;;;;3.50;2.57;;;;;;;;;;5027983;28;20530;-61
2023/08/29 13:34:08;;;;;;;3.53;2.40;;;;;;;;;;5028715;28;20049;-61
2023/08/29 13:36:34;;;;;;;3.07;2.00;;;;;;;;;;5028311;28;20508;-61
2023/08/29 13:39:00;;;;;;;3.47;2.20;;;;;;;;;;5028107;28;20095;-61
2023/08/29 13:41:26;;;;;;;2.93;2.07;;;;;;;;;;5027744;28;20132;-61
2023/08/29 13:43:51;;;;;;;3.53;2.30;;;;;;;;;;5027950;28;20738;-61
2023/08/29 13:46:17;;;;;;;3.37;2.10;;;;;;;;;;5027946;28;20045;-61
2023/08/29 13:48:43;;;;;;;3.13;2.13;;;;;;;;;;5027531;28;20194;-61
2023/08/29 13:51:09;;;;;;;2.97;2.20;;;;;;;;;;5034613;28;20151;-62
2023/08/29 13:53:35;;;;;;;3.40;2.22;;;;;;;;;;5034413;28;20045;-61
2023/08/29 13:56:01;;;;;;;2.92;2.17;;;;;;;;;;5027417;28;20033;-61
2023/08/29 13:58:27;;;;;;;3.40;2.40;;;;;;;;;;5026914;28;20081;-62
2023/08/29 14:00:53;;;;;;;5.03;2.60;;;;;;;;;;5047491;28;20143;-61
2023/08/29 14:03:19;;;;;;;3.00;2.15;;;;;;;;;;5045922;28;20052;-61
2023/08/29 14:05:46;;;;;;;3.33;2.05;;;;;;;;;;5038248;28;20564;-61
2023/08/29 14:08:12;;;;;;;4.47;2.25;;;;;;;;;;5028036;28;20049;-62
2023/08/29 14:10:38;;;;;;;3.53;1.95;;;;;;;;;;5027821;28;20570;-61
2023/08/29 14:13:04;;;;;;;3.92;2.28;;;;;;;;;;5046254;28;20045;-62
2023/08/29 14:15:30;;;;;;;5.32;2.70;;;;;;;;;;5045987;28;20040;-62
2023/08/29 14:17:56;;;;;;;3.72;2.03;;;;;;;;;;5038614;28;20068;-61
2023/08/29 14:20:23;;;;;;;3.58;2.10;;;;;;;;;;5026844;28;20052;-62
2023/08/29 14:22:49;;;;;;;5.28;2.88;;;;;;;;;;5028050;28;20053;-62
2023/08/29 14:25:15;;;;;;;4.85;2.53;;;;;;;;;;5027266;28;20041;-61
2023/08/29 14:27:41;;;;;;;4.13;2.30;;;;;;;;;;5027186;28;20045;-62
2023/08/29 14:30:07;;;;;;;4.45;2.58;;;;;;;;;;5027310;28;20389;-62
2023/08/29 14:32:33;;;;;;;4.65;2.42;;;;;;;;;;5025971;28;20045;-62